createdAt,value
2023-04-14T00:01:30.808Z,85.21
2023-04-14T00:04:16.882Z,86.30
2023-04-14T00:07:02.100Z,86.72
2023-04-14T00:09:47.282Z,87.78
2023-04-14T00:12:32.419Z,88.12
2023-04-14T00:15:18.188Z,87.62
2023-04-14T00:18:03.394Z,88.05
2023-04-14T00:20:48.522Z,87.73
2023-04-14T00:23:33.955Z,87.45
2023-04-14T00:26:19.339Z,87.98
2023-04-14T00:29:04.535Z,87.99
2023-04-14T00:31:49.745Z,87.84
2023-04-14T00:34:35.099Z,87.71
2023-04-14T00:37:20.464Z,87.78
2023-04-14T00:40:09.320Z,88.29
2023-04-14T00:42:54.654Z,88.43
2023-04-14T00:45:45.612Z,88.11
2023-04-14T00:48:31.469Z,88.45
2023-04-14T00:51:16.924Z,88.50
2023-04-14T00:54:09.641Z,88.95
2023-04-14T00:56:57.435Z,88.42
2023-04-14T00:59:42.609Z,88.46
2023-04-14T01:02:28.152Z,88.10
2023-04-14T01:05:14.035Z,88.20
2023-04-14T01:07:59.260Z,88.28
2023-04-14T01:11:03.663Z,87.83
2023-04-14T01:14:40.469Z,87.69
2023-04-14T01:17:34.782Z,87.81
2023-04-14T01:20:30.998Z,86.73
2023-04-14T01:23:26.789Z,86.96
2023-04-14T01:26:19.256Z,86.59
2023-04-14T01:29:28.428Z,86.05
2023-04-14T01:32:22.219Z,85.90
2023-04-14T01:35:23.460Z,85.76
2023-04-14T01:38:12.697Z,85.94
2023-04-14T01:41:01.706Z,85.77
2023-04-14T01:43:49.908Z,85.75
2023-04-14T01:46:36.601Z,85.77
2023-04-14T01:49:23.845Z,85.98
2023-04-14T01:52:10.868Z,85.63
2023-04-14T01:54:58.562Z,85.90
2023-04-14T01:57:46.229Z,85.31
2023-04-14T02:00:33.426Z,85.14
2023-04-14T02:03:21.733Z,85.75
2023-04-14T02:06:08.933Z,85.82
2023-04-14T02:08:54.217Z,85.85
2023-04-14T02:11:40.612Z,85.62
2023-04-14T02:14:27.744Z,85.81
2023-04-14T02:17:13.867Z,86.43
2023-04-14T02:20:01.093Z,86.18
2023-04-14T02:22:46.109Z,86.03
2023-04-14T02:25:35.301Z,86.68
2023-04-14T02:28:22.910Z,86.59
2023-04-14T02:31:13.004Z,86.59
2023-04-14T02:34:01.072Z,85.87
2023-04-14T02:36:53.530Z,85.76
2023-04-14T02:39:43.872Z,86.34
2023-04-14T02:42:30.968Z,86.61
2023-04-14T02:45:23.105Z,86.24
2023-04-14T02:48:13.053Z,87.04
2023-04-14T02:50:59.894Z,87.09
2023-04-14T02:53:45.831Z,86.92
2023-04-14T02:56:32.053Z,86.72
2023-04-14T02:59:18.662Z,87.02
2023-04-14T03:02:06.220Z,87.37
2023-04-14T03:04:53.419Z,87.34
2023-04-14T03:07:40.502Z,87.34
2023-04-14T03:10:26.968Z,87.18
2023-04-14T03:13:14.075Z,87.15
2023-04-14T03:15:59.753Z,86.97
2023-04-14T03:18:45.892Z,87.04
2023-04-14T03:21:32.122Z,86.79
2023-04-14T03:24:24.381Z,87.07
2023-04-14T03:27:14.427Z,87.07
2023-04-14T03:30:07.266Z,87.51
2023-04-14T03:32:54.338Z,87.58
2023-04-14T03:35:40.371Z,87.99
2023-04-14T03:38:28.036Z,87.96
2023-04-14T03:41:14.791Z,87.95
2023-04-14T03:44:01.610Z,88.70
2023-04-14T03:46:49.252Z,88.86
2023-04-14T03:49:39.376Z,88.76
2023-04-14T03:52:26.571Z,88.42
2023-04-14T03:55:12.607Z,88.59
2023-04-14T03:57:59.505Z,89.21
2023-04-14T04:00:45.351Z,89.20
2023-04-14T04:03:31.496Z,89.10
2023-04-14T04:06:18.026Z,89.25
2023-04-14T04:09:05.873Z,89.43
2023-04-14T04:11:53.154Z,89.93
2023-04-14T04:14:41.864Z,89.20
2023-04-14T04:17:31.552Z,90.42
2023-04-14T04:20:18.647Z,90.31
2023-04-14T04:23:05.967Z,90.71
2023-04-14T04:25:51.954Z,91.38
2023-04-14T04:28:37.989Z,91.57
2023-04-14T04:31:24.314Z,91.96
2023-04-14T04:34:10.477Z,92.68
2023-04-14T04:36:56.318Z,92.89
2023-04-14T04:39:41.646Z,93.11
2023-04-14T04:42:27.165Z,93.01
2023-04-14T04:45:12.834Z,93.40
2023-04-14T04:47:57.997Z,94.25
2023-04-14T04:50:43.343Z,94.43
2023-04-14T04:53:28.605Z,94.41
2023-04-14T04:56:14.107Z,94.70
2023-04-14T04:58:59.745Z,94.69
2023-04-14T05:01:45.761Z,94.80
2023-04-14T05:04:31.137Z,95.66
2023-04-14T05:07:16.661Z,96.61
2023-04-14T05:10:01.757Z,96.31
2023-04-14T05:12:46.974Z,96.07
2023-04-14T05:15:32.201Z,95.80
2023-04-14T05:18:17.960Z,95.58
2023-04-14T05:21:07.843Z,95.78
2023-04-14T05:23:52.960Z,97.39
2023-04-14T05:26:57.826Z,96.76
2023-04-14T05:29:44.006Z,97.91
2023-04-14T05:32:29.434Z,98.04
2023-04-14T05:35:15.901Z,98.32
2023-04-14T05:38:01.480Z,98.18
2023-04-14T05:40:47.448Z,98.24
2023-04-14T05:43:32.766Z,98.08
2023-04-14T05:46:17.951Z,98.10
2023-04-14T05:49:04.935Z,99.33
2023-04-14T05:51:50.467Z,97.92
2023-04-14T05:54:35.814Z,97.63
2023-04-14T05:57:21.377Z,98.14
2023-04-14T06:00:10.599Z,97.75
2023-04-14T06:02:56.304Z,98.23
2023-04-14T06:05:42.007Z,98.06
2023-04-14T06:08:26.932Z,98.34
2023-04-14T06:11:13.407Z,97.48
2023-04-14T06:13:58.919Z,97.27
2023-04-14T06:16:44.361Z,96.49
2023-04-14T06:19:29.897Z,96.07
2023-04-14T06:22:19.325Z,96.19
2023-04-14T06:25:04.831Z,96.50
2023-04-14T06:27:50.368Z,95.56
2023-04-14T06:30:35.803Z,95.59
2023-04-14T06:33:21.035Z,95.14
2023-04-14T06:36:06.549Z,94.94
2023-04-14T06:38:51.623Z,94.23
2023-04-14T06:41:36.918Z,92.97
2023-04-14T06:44:22.297Z,91.06
2023-04-14T06:47:09.089Z,90.61
2023-04-14T06:49:54.022Z,90.15
2023-04-14T06:52:39.350Z,89.54
2023-04-14T06:55:24.556Z,89.23
2023-04-14T06:58:09.861Z,88.70
2023-04-14T07:01:03.141Z,89.48
2023-04-14T07:03:48.466Z,88.26
2023-04-14T07:06:33.813Z,86.47
2023-04-14T07:09:20.904Z,85.44
2023-04-14T07:12:06.560Z,83.04
2023-04-14T07:14:52.239Z,81.86
2023-04-14T07:17:37.393Z,78.66
2023-04-14T07:20:22.799Z,76.88
2023-04-14T07:23:07.718Z,75.58
2023-04-14T07:25:57.687Z,74.51
2023-04-14T07:28:43.028Z,74.75
2023-04-14T07:31:28.173Z,73.44
2023-04-14T07:34:13.362Z,71.88
2023-04-14T07:36:58.804Z,70.62
2023-04-14T07:39:44.026Z,69.99
2023-04-14T07:42:29.423Z,70.14
2023-04-14T07:45:14.432Z,68.59
2023-04-14T07:47:59.918Z,68.92
2023-04-14T07:50:48.354Z,67.86
2023-04-14T07:53:34.124Z,66.62
2023-04-14T07:56:19.570Z,64.67
2023-04-14T07:59:04.618Z,64.08
2023-04-14T08:01:49.864Z,63.60
2023-04-14T08:04:35.190Z,61.86
2023-04-14T08:07:20.738Z,62.45
2023-04-14T08:10:06.147Z,62.25
2023-04-14T08:12:51.403Z,61.41
2023-04-14T08:15:36.800Z,62.50
2023-04-14T08:18:22.212Z,63.20
2023-04-14T08:21:07.594Z,62.93
2023-04-14T08:23:52.805Z,63.01
2023-04-14T08:26:38.671Z,62.93
2023-04-14T08:29:24.023Z,62.04
2023-04-14T08:32:09.305Z,61.46
2023-04-14T08:35:38.396Z,62.43
2023-04-14T08:38:01.314Z,61.89
2023-04-14T08:40:53.517Z,61.50
2023-04-14T08:43:38.961Z,60.45
2023-04-14T08:46:27.296Z,60.48
2023-04-14T08:49:22.203Z,59.63
2023-04-14T08:52:10.819Z,59.87
2023-04-14T08:54:57.671Z,60.26
2023-04-14T08:57:44.212Z,59.23
2023-04-14T09:00:31.017Z,58.93
2023-04-14T09:03:16.408Z,59.43
2023-04-14T09:06:02.755Z,60.25
2023-04-14T09:08:48.181Z,60.83
2023-04-14T09:11:33.818Z,60.98
2023-04-14T09:14:20.800Z,61.20
2023-04-14T09:17:06.562Z,61.41
2023-04-14T09:20:38.936Z,61.08
2023-04-14T09:22:58.166Z,60.85
2023-04-14T09:25:43.548Z,60.43
2023-04-14T09:28:28.493Z,60.64
2023-04-14T09:31:13.949Z,60.91
2023-04-14T09:33:59.173Z,60.11
2023-04-14T09:37:13.951Z,59.76
2023-04-14T09:40:00.215Z,58.92
2023-04-14T09:42:47.266Z,58.63
2023-04-14T09:45:45.332Z,59.06
2023-04-14T09:48:30.554Z,58.63
2023-04-14T09:51:16.207Z,58.56
2023-04-14T09:54:07.053Z,59.53
2023-04-14T09:56:56.674Z,58.97
2023-04-14T09:59:41.982Z,57.60
2023-04-14T10:02:27.275Z,58.15
2023-04-14T10:05:12.875Z,58.15
2023-04-14T10:08:05.479Z,58.28
2023-04-14T10:10:51.633Z,58.26
2023-04-14T10:13:37.103Z,57.70
2023-04-14T10:16:23.344Z,57.95
2023-04-14T10:19:08.865Z,58.24
2023-04-14T10:21:54.609Z,58.08
2023-04-14T10:24:41.533Z,57.95
2023-04-14T10:27:30.156Z,58.23
2023-04-14T10:30:15.649Z,57.02
2023-04-14T10:33:02.403Z,56.89
2023-04-14T10:35:53.634Z,55.60
2023-04-14T10:38:44.531Z,55.78
2023-04-14T10:41:47.343Z,55.53
2023-04-14T10:44:35.209Z,55.68
2023-04-14T10:47:25.085Z,56.09
2023-04-14T10:50:18.558Z,55.20
2023-04-14T10:53:08.086Z,55.88
2023-04-14T10:55:58.080Z,54.06
2023-04-14T10:58:55.171Z,53.54
2023-04-14T11:01:41.565Z,53.30
2023-04-14T11:04:27.185Z,53.90
2023-04-14T11:07:21.745Z,54.39
2023-04-14T11:10:19.363Z,54.29
2023-04-14T11:13:07.540Z,52.89
2023-04-14T11:16:08.252Z,53.59
2023-04-14T11:18:54.630Z,54.25
2023-04-14T11:21:49.958Z,52.94
2023-04-14T11:24:35.104Z,53.84
2023-04-14T11:27:20.316Z,54.08
2023-04-14T11:30:14.245Z,52.43
2023-04-14T11:32:59.692Z,52.46
2023-04-14T11:35:45.948Z,52.50
2023-04-14T11:38:31.652Z,52.43
2023-04-14T11:41:16.925Z,51.88
2023-04-14T11:44:02.159Z,52.23
2023-04-14T11:46:47.302Z,52.54
2023-04-14T11:49:35.090Z,52.92
2023-04-14T11:52:21.045Z,53.16
2023-04-14T11:55:07.066Z,53.28
2023-04-14T11:57:53.364Z,53.28
2023-04-14T12:00:38.864Z,52.98
2023-04-14T12:03:29.282Z,52.98
2023-04-14T12:06:15.363Z,54.11
2023-04-14T12:09:03.799Z,52.54
2023-04-14T12:11:55.801Z,53.05
2023-04-14T12:14:42.810Z,52.98
2023-04-14T12:17:28.628Z,52.40
2023-04-14T12:20:16.108Z,53.45
2023-04-14T12:23:03.197Z,53.39
2023-04-14T12:25:52.336Z,53.90
2023-04-14T12:28:41.166Z,53.30
2023-04-14T12:31:29.790Z,52.78
2023-04-14T12:34:15.226Z,53.31
2023-04-14T12:37:07.146Z,53.37
2023-04-14T12:40:00.790Z,54.24
2023-04-14T12:42:54.128Z,54.01
2023-04-14T12:45:48.978Z,53.74
2023-04-14T12:48:45.767Z,53.50
2023-04-14T12:51:38.916Z,52.99
2023-04-14T12:54:23.831Z,52.09
2023-04-14T12:57:09.312Z,52.20
2023-04-14T12:59:54.872Z,52.04
2023-04-14T13:02:40.181Z,52.33
2023-04-14T13:05:25.484Z,52.43
2023-04-14T13:08:11.706Z,52.80
2023-04-14T13:10:57.176Z,52.98
2023-04-14T13:13:44.417Z,52.84
2023-04-14T13:16:30.030Z,53.35
2023-04-14T13:19:15.249Z,52.60
2023-04-14T13:22:00.608Z,52.81
2023-04-14T13:24:46.326Z,53.67
2023-04-14T13:27:31.440Z,53.71
2023-04-14T13:30:16.787Z,53.11
2023-04-14T13:33:02.030Z,53.53
2023-04-14T13:35:47.411Z,54.23
2023-04-14T13:38:33.463Z,54.92
2023-04-14T13:41:19.627Z,55.30
2023-04-14T13:44:05.192Z,56.18
2023-04-14T13:46:53.914Z,56.54
2023-04-14T13:49:39.040Z,56.83
2023-04-14T13:52:24.160Z,58.31
2023-04-14T13:55:11.013Z,58.75
2023-04-14T13:57:56.294Z,58.22
2023-04-14T14:00:41.693Z,60.03
2023-04-14T14:03:29.113Z,61.18
2023-04-14T14:06:15.592Z,62.29
2023-04-14T14:09:06.411Z,63.56
2023-04-14T14:11:52.206Z,64.15
2023-04-14T14:14:38.088Z,64.81
2023-04-14T14:17:23.443Z,65.72
2023-04-14T14:20:09.686Z,67.60
2023-04-14T14:22:55.230Z,68.08
2023-04-14T14:25:41.054Z,68.45
2023-04-14T14:28:26.267Z,68.99
2023-04-14T14:31:11.617Z,69.37
2023-04-14T14:33:56.860Z,69.94
2023-04-14T14:36:43.609Z,69.73
2023-04-14T14:39:32.064Z,69.39
2023-04-14T14:42:17.031Z,69.34
2023-04-14T14:45:02.337Z,69.12
2023-04-14T14:47:47.775Z,68.64
2023-04-14T14:50:32.930Z,67.71
2023-04-14T14:53:18.349Z,67.82
2023-04-14T14:56:03.803Z,68.38
2023-04-14T14:58:48.876Z,70.94
2023-04-14T15:01:35.027Z,71.02
2023-04-14T15:04:20.438Z,71.37
2023-04-14T15:07:05.862Z,71.73
2023-04-14T15:09:50.996Z,72.66
2023-04-14T15:12:36.123Z,73.60
2023-04-14T15:15:21.375Z,73.83
2023-04-14T15:18:07.351Z,71.14
2023-04-14T15:20:56.102Z,70.49
2023-04-14T15:23:43.576Z,70.23
2023-04-14T15:26:28.903Z,70.30
2023-04-14T15:29:14.000Z,70.80
2023-04-14T15:32:00.407Z,71.19
2023-04-14T15:34:45.890Z,71.58
2023-04-14T15:37:31.067Z,71.72
2023-04-14T15:40:16.374Z,71.85
2023-04-14T15:43:01.686Z,72.12
2023-04-14T15:45:46.617Z,73.00
2023-04-14T15:48:31.946Z,73.38
2023-04-14T15:51:17.173Z,73.46
2023-04-14T15:54:02.684Z,74.62
2023-04-14T15:56:48.097Z,75.27
2023-04-14T15:59:33.437Z,75.50
2023-04-14T16:02:18.665Z,76.02
2023-04-14T16:05:07.288Z,76.88
2023-04-14T16:07:52.773Z,77.97
2023-04-14T16:10:41.831Z,79.17
2023-04-14T16:13:27.471Z,80.42
2023-04-14T16:16:13.796Z,81.22
2023-04-14T16:18:59.119Z,84.53
2023-04-14T16:21:44.527Z,84.64
2023-04-14T16:24:34.282Z,84.56
2023-04-14T16:27:19.291Z,84.79
2023-04-14T16:30:04.886Z,86.38
2023-04-14T16:32:50.372Z,87.34
2023-04-14T16:35:35.484Z,87.26
2023-04-14T16:38:20.379Z,87.21
2023-04-14T16:41:05.803Z,87.18
2023-04-14T16:43:51.056Z,87.47
2023-04-14T16:46:36.331Z,88.09
2023-04-14T16:49:21.779Z,88.58
2023-04-14T16:52:07.361Z,88.35
2023-04-14T16:54:54.388Z,89.23
2023-04-14T16:57:39.607Z,89.79
2023-04-14T17:00:25.201Z,89.41
2023-04-14T17:03:10.760Z,89.42
2023-04-14T17:05:56.547Z,89.84
2023-04-14T17:08:41.654Z,91.33
2023-04-14T17:11:27.082Z,91.81
2023-04-14T17:14:12.289Z,92.68
2023-04-14T17:16:57.775Z,92.40
2023-04-14T17:19:42.991Z,92.21
2023-04-14T17:22:28.298Z,93.63
2023-04-14T17:25:16.360Z,94.64
2023-04-14T17:28:02.386Z,94.30
2023-04-14T17:30:47.590Z,93.67
2023-04-14T17:33:32.795Z,92.83
2023-04-14T17:36:17.842Z,92.85
2023-04-14T17:39:03.986Z,93.02
2023-04-14T17:41:49.450Z,93.73
2023-04-14T17:44:35.273Z,93.90
2023-04-14T17:47:22.009Z,93.41
2023-04-14T17:50:07.809Z,93.90
2023-04-14T17:52:53.223Z,94.52
2023-04-14T17:55:38.481Z,94.34
2023-04-14T17:58:27.145Z,94.14
2023-04-14T18:01:12.342Z,94.14
2023-04-14T18:03:59.831Z,94.17
2023-04-14T18:06:45.440Z,93.85
2023-04-14T18:09:30.610Z,93.98
2023-04-14T18:12:15.750Z,93.60
2023-04-14T18:15:01.093Z,93.36
2023-04-14T18:17:46.850Z,94.46
2023-04-14T18:20:32.231Z,94.87
2023-04-14T18:23:17.539Z,94.48
2023-04-14T18:28:51.612Z,93.98
2023-04-14T18:31:37.215Z,93.72
2023-04-14T18:34:22.795Z,93.62
2023-04-14T18:37:07.978Z,93.65
2023-04-14T18:39:53.003Z,93.50
2023-04-14T18:42:39.044Z,93.83
2023-04-14T18:45:24.624Z,93.82
2023-04-14T18:48:10.010Z,93.69
2023-04-14T18:51:01.965Z,95.21
2023-04-14T18:53:48.186Z,96.22
2023-04-14T18:56:33.397Z,96.76
2023-04-14T18:59:18.859Z,97.07
2023-04-14T19:02:04.598Z,97.50
2023-04-14T19:04:50.241Z,98.37
2023-04-14T19:07:35.986Z,99.01
2023-04-14T19:10:21.381Z,99.04
2023-04-14T19:13:06.834Z,99.10
2023-04-14T19:15:52.838Z,99.06
2023-04-14T19:18:52.512Z,98.55
2023-04-14T19:21:37.617Z,97.95
2023-04-14T19:24:23.494Z,99.11
2023-04-14T19:27:10.436Z,98.80
2023-04-14T19:29:57.470Z,98.95
2023-04-14T19:32:42.871Z,98.86
2023-04-14T19:35:28.768Z,98.38
2023-04-14T19:38:13.808Z,98.41
2023-04-14T19:40:59.060Z,98.83
2023-04-14T19:43:45.687Z,98.51
2023-04-14T19:46:31.596Z,98.64
2023-04-14T19:49:16.641Z,98.26
2023-04-14T19:52:01.986Z,97.96
2023-04-14T19:54:47.520Z,98.30
2023-04-14T19:57:33.228Z,97.65
2023-04-14T20:00:18.450Z,97.08
2023-04-14T20:03:03.790Z,97.00
2023-04-14T20:05:54.931Z,97.66
2023-04-14T20:08:40.829Z,97.81
2023-04-14T20:11:28.172Z,97.68
2023-04-14T20:14:13.711Z,96.93
2023-04-14T20:16:59.424Z,96.41
2023-04-14T20:19:44.614Z,96.50
2023-04-14T20:22:33.494Z,96.06
2023-04-14T20:25:19.159Z,96.12
2023-04-14T20:28:05.236Z,95.75
2023-04-14T20:30:54.760Z,94.96
2023-04-14T20:33:40.121Z,94.53
2023-04-14T20:36:25.298Z,94.42
2023-04-14T20:39:10.819Z,94.29
2023-04-14T20:41:55.858Z,94.10
2023-04-14T20:44:41.287Z,93.21
2023-04-14T20:47:26.733Z,93.53
2023-04-14T20:50:12.370Z,92.65
2023-04-14T20:52:57.488Z,92.55
2023-04-14T20:55:43.459Z,92.17
2023-04-14T20:58:28.484Z,92.41
2023-04-14T21:01:13.793Z,92.69
2023-04-14T21:03:59.271Z,92.15
2023-04-14T21:06:44.578Z,91.84
2023-04-14T21:09:30.223Z,91.87
2023-04-14T21:12:16.667Z,92.29
2023-04-14T21:15:47.535Z,92.49
2023-04-14T21:18:06.904Z,92.54
2023-04-14T21:20:52.229Z,92.42
2023-04-14T21:23:37.773Z,92.48
2023-04-14T21:26:23.901Z,92.31
2023-04-14T21:29:09.460Z,92.40
2023-04-14T21:31:54.755Z,92.58
2023-04-14T21:34:40.817Z,92.79
2023-04-14T21:37:25.960Z,92.40
2023-04-14T21:40:11.704Z,91.97
2023-04-14T21:42:56.712Z,91.65
2023-04-14T21:45:42.298Z,91.27
2023-04-14T21:48:27.825Z,91.30
2023-04-14T21:51:13.458Z,91.02
2023-04-14T21:53:58.519Z,91.02
2023-04-14T21:56:45.055Z,90.20
2023-04-14T21:59:30.673Z,90.20
2023-04-14T22:02:16.758Z,89.96
2023-04-14T22:05:02.317Z,90.04
2023-04-14T22:07:47.382Z,89.46
2023-04-14T22:10:32.752Z,89.56
2023-04-14T22:13:18.496Z,89.38
2023-04-14T22:16:04.129Z,89.67
2023-04-14T22:18:49.272Z,90.14
2023-04-14T22:21:34.933Z,90.32
2023-04-14T22:24:20.154Z,90.49
2023-04-14T22:27:05.378Z,90.60
2023-04-14T22:29:50.717Z,90.51
2023-04-14T22:32:36.425Z,90.80
2023-04-14T22:35:22.043Z,90.68
2023-04-14T22:38:07.554Z,91.75
2023-04-14T22:40:52.850Z,92.01
2023-04-14T22:43:38.365Z,92.34
2023-04-14T22:46:23.638Z,91.80
2023-04-14T22:49:08.955Z,91.99
2023-04-14T22:51:54.265Z,91.90
2023-04-14T22:54:39.641Z,91.92
2023-04-14T22:57:25.066Z,92.24
2023-04-14T23:00:11.874Z,92.18
2023-04-14T23:02:59.376Z,92.85
2023-04-14T23:05:44.864Z,92.27
2023-04-14T23:08:30.500Z,92.23
2023-04-14T23:11:20.877Z,91.98
2023-04-14T23:14:06.653Z,91.76
2023-04-14T23:16:51.993Z,91.86
2023-04-14T23:19:37.636Z,92.06
2023-04-14T23:22:23.447Z,92.34
2023-04-14T23:25:09.302Z,92.51
2023-04-14T23:27:54.589Z,92.69
2023-04-14T23:30:41.814Z,93.04
2023-04-14T23:33:27.048Z,92.44
2023-04-14T23:36:13.499Z,92.22
2023-04-14T23:38:58.709Z,92.77
2023-04-14T23:41:44.024Z,92.71
2023-04-14T23:44:29.506Z,92.04
2023-04-14T23:47:14.896Z,92.22
2023-04-14T23:50:00.152Z,92.31
2023-04-14T23:52:45.310Z,91.92
2023-04-14T23:55:30.537Z,92.43
2023-04-14T23:58:26.099Z,92.00
